sensor_id;sensor_type;location;lat;lon;timestamp;pressure;altitude;pressure_sealevel;temperature
21336;BMP180;69435;52.670;13.544;2023-09-19T00:01:12;99950.00;;;21.90
21336;BMP180;69435;52.670;13.544;2023-09-19T00:03:59;99949.00;;;21.90
21336;BMP180;69435;52.670;13.544;2023-09-19T00:06:46;99945.00;;;21.90
21336;BMP180;69435;52.670;13.544;2023-09-19T00:09:33;99950.00;;;21.90
21336;BMP180;69435;52.670;13.544;2023-09-19T00:12:22;99956.00;;;21.80
21336;BMP180;69435;52.670;13.544;2023-09-19T00:15:09;99921.00;;;21.80
21336;BMP180;69435;52.670;13.544;2023-09-19T00:17:56;99929.00;;;21.80
21336;BMP180;69435;52.670;13.544;2023-09-19T00:20:42;99927.00;;;21.80
21336;BMP180;69435;52.670;13.544;2023-09-19T00:23:28;99926.00;;;21.80
21336;BMP180;69435;52.670;13.544;2023-09-19T00:26:15;99944.00;;;21.80
21336;BMP180;69435;52.670;13.544;2023-09-19T00:29:01;99944.00;;;21.80
21336;BMP180;69435;52.670;13.544;2023-09-19T00:31:54;99940.00;;;21.80
21336;BMP180;69435;52.670;13.544;2023-09-19T00:34:40;99931.00;;;21.70
21336;BMP180;69435;52.670;13.544;2023-09-19T00:37:26;99940.00;;;21.70
21336;BMP180;69435;52.670;13.544;2023-09-19T00:40:12;99935.00;;;21.70
21336;BMP180;69435;52.670;13.544;2023-09-19T00:42:58;99944.00;;;21.70
21336;BMP180;69435;52.670;13.544;2023-09-19T00:45:50;99948.00;;;21.70
21336;BMP180;69435;52.670;13.544;2023-09-19T00:48:41;99924.00;;;21.70
21336;BMP180;69435;52.670;13.544;2023-09-19T00:51:29;99938.00;;;21.60
21336;BMP180;69435;52.670;13.544;2023-09-19T00:54:18;99938.00;;;21.60
21336;BMP180;69435;52.670;13.544;2023-09-19T00:57:04;99925.00;;;21.60
21336;BMP180;69435;52.670;13.544;2023-09-19T00:59:53;99934.00;;;21.60
21336;BMP180;69435;52.670;13.544;2023-09-19T01:02:42;99942.00;;;21.50
21336;BMP180;69435;52.670;13.544;2023-09-19T01:05:31;99943.00;;;21.50
21336;BMP180;69435;52.670;13.544;2023-09-19T01:08:17;99934.00;;;21.50
21336;BMP180;69435;52.670;13.544;2023-09-19T01:11:28;99945.00;;;21.50
21336;BMP180;69435;52.670;13.544;2023-09-19T01:17:45;99942.00;;;21.50
21336;BMP180;69435;52.670;13.544;2023-09-19T01:20:45;99931.00;;;21.40
21336;BMP180;69435;52.670;13.544;2023-09-19T01:24:18;99936.00;;;21.40
21336;BMP180;69435;52.670;13.544;2023-09-19T01:27:21;99925.00;;;21.40
21336;BMP180;69435;52.670;13.544;2023-09-19T01:30:22;99946.00;;;21.40
21336;BMP180;69435;52.670;13.544;2023-09-19T01:33:10;99940.00;;;21.30
21336;BMP180;69435;52.670;13.544;2023-09-19T01:35:56;99942.00;;;21.30
21336;BMP180;69435;52.670;13.544;2023-09-19T01:38:43;99949.00;;;21.30
21336;BMP180;69435;52.670;13.544;2023-09-19T01:42:00;99939.00;;;21.30
21336;BMP180;69435;52.670;13.544;2023-09-19T01:45:07;99942.00;;;21.30
21336;BMP180;69435;52.670;13.544;2023-09-19T01:48:04;99939.00;;;21.30
21336;BMP180;69435;52.670;13.544;2023-09-19T01:51:01;99938.00;;;21.30
21336;BMP180;69435;52.670;13.544;2023-09-19T01:54:09;99964.00;;;21.40
21336;BMP180;69435;52.670;13.544;2023-09-19T01:57:01;99951.00;;;21.40
21336;BMP180;69435;52.670;13.544;2023-09-19T02:00:05;99946.00;;;21.40
21336;BMP180;69435;52.670;13.544;2023-09-19T02:02:53;99918.00;;;21.40
21336;BMP180;69435;52.670;13.544;2023-09-19T02:05:48;99937.00;;;21.40
21336;BMP180;69435;52.670;13.544;2023-09-19T02:08:34;99929.00;;;21.40
21336;BMP180;69435;52.670;13.544;2023-09-19T02:11:21;99946.00;;;21.40
21336;BMP180;69435;52.670;13.544;2023-09-19T02:14:07;99949.00;;;21.30
21336;BMP180;69435;52.670;13.544;2023-09-19T02:16:54;99948.00;;;21.30
21336;BMP180;69435;52.670;13.544;2023-09-19T02:19:40;99951.00;;;21.30
21336;BMP180;69435;52.670;13.544;2023-09-19T02:22:27;99924.00;;;21.30
21336;BMP180;69435;52.670;13.544;2023-09-19T02:25:13;99966.00;;;21.20
21336;BMP180;69435;52.670;13.544;2023-09-19T02:27:59;99954.00;;;21.20
21336;BMP180;69435;52.670;13.544;2023-09-19T02:30:50;99958.00;;;21.20
21336;BMP180;69435;52.670;13.544;2023-09-19T02:33:36;99972.00;;;21.10
21336;BMP180;69435;52.670;13.544;2023-09-19T02:36:22;99951.00;;;21.10
21336;BMP180;69435;52.670;13.544;2023-09-19T02:39:09;99965.00;;;21.10
21336;BMP180;69435;52.670;13.544;2023-09-19T02:41:56;99965.00;;;21.10
21336;BMP180;69435;52.670;13.544;2023-09-19T02:44:42;99968.00;;;21.10
21336;BMP180;69435;52.670;13.544;2023-09-19T02:47:28;99967.00;;;21.10
21336;BMP180;69435;52.670;13.544;2023-09-19T02:50:17;99983.00;;;21.10
21336;BMP180;69435;52.670;13.544;2023-09-19T02:53:03;99976.00;;;21.10
21336;BMP180;69435;52.670;13.544;2023-09-19T02:55:50;99964.00;;;21.00
21336;BMP180;69435;52.670;13.544;2023-09-19T02:58:39;99990.00;;;21.00
21336;BMP180;69435;52.670;13.544;2023-09-19T03:01:27;99996.00;;;21.00
21336;BMP180;69435;52.670;13.544;2023-09-19T03:04:14;99980.00;;;21.00
21336;BMP180;69435;52.670;13.544;2023-09-19T03:07:05;99988.00;;;21.00
21336;BMP180;69435;52.670;13.544;2023-09-19T03:09:51;99986.00;;;21.00
21336;BMP180;69435;52.670;13.544;2023-09-19T03:12:38;99983.00;;;20.90
21336;BMP180;69435;52.670;13.544;2023-09-19T03:15:26;99976.00;;;20.90
21336;BMP180;69435;52.670;13.544;2023-09-19T03:18:12;100005.00;;;20.90
21336;BMP180;69435;52.670;13.544;2023-09-19T03:20:58;99990.00;;;20.80
21336;BMP180;69435;52.670;13.544;2023-09-19T03:23:47;99980.00;;;20.80
21336;BMP180;69435;52.670;13.544;2023-09-19T03:26:33;100006.00;;;20.80
21336;BMP180;69435;52.670;13.544;2023-09-19T03:29:19;100003.00;;;20.80
21336;BMP180;69435;52.670;13.544;2023-09-19T03:32:05;100006.00;;;20.80
21336;BMP180;69435;52.670;13.544;2023-09-19T03:34:51;100004.00;;;20.80
21336;BMP180;69435;52.670;13.544;2023-09-19T03:37:37;100005.00;;;20.70
21336;BMP180;69435;52.670;13.544;2023-09-19T03:40:24;100006.00;;;20.70
21336;BMP180;69435;52.670;13.544;2023-09-19T03:43:11;99988.00;;;20.80
21336;BMP180;69435;52.670;13.544;2023-09-19T03:46:01;100002.00;;;20.80
21336;BMP180;69435;52.670;13.544;2023-09-19T03:48:48;100015.00;;;20.70
21336;BMP180;69435;52.670;13.544;2023-09-19T03:51:34;100016.00;;;20.70
21336;BMP180;69435;52.670;13.544;2023-09-19T03:54:20;99998.00;;;20.70
21336;BMP180;69435;52.670;13.544;2023-09-19T03:57:06;100031.00;;;20.70
21336;BMP180;69435;52.670;13.544;2023-09-19T03:59:52;100021.00;;;20.60
21336;BMP180;69435;52.670;13.544;2023-09-19T04:02:39;100034.00;;;20.60
21336;BMP180;69435;52.670;13.544;2023-09-19T04:05:25;100032.00;;;20.60
21336;BMP180;69435;52.670;13.544;2023-09-19T04:08:11;100041.00;;;20.60
21336;BMP180;69435;52.670;13.544;2023-09-19T04:10:57;100041.00;;;20.60
21336;BMP180;69435;52.670;13.544;2023-09-19T04:13:43;100037.00;;;20.60
21336;BMP180;69435;52.670;13.544;2023-09-19T04:16:29;100031.00;;;20.60
21336;BMP180;69435;52.670;13.544;2023-09-19T04:19:15;100030.00;;;20.50
21336;BMP180;69435;52.670;13.544;2023-09-19T04:22:01;100043.00;;;20.50
21336;BMP180;69435;52.670;13.544;2023-09-19T04:24:47;100023.00;;;20.50
21336;BMP180;69435;52.670;13.544;2023-09-19T04:27:33;100025.00;;;20.50
21336;BMP180;69435;52.670;13.544;2023-09-19T04:30:19;100018.00;;;20.50
21336;BMP180;69435;52.670;13.544;2023-09-19T04:33:07;100059.00;;;20.50
21336;BMP180;69435;52.670;13.544;2023-09-19T04:35:53;100060.00;;;20.40
21336;BMP180;69435;52.670;13.544;2023-09-19T04:38:39;100059.00;;;20.40
21336;BMP180;69435;52.670;13.544;2023-09-19T04:41:25;100063.00;;;20.40
21336;BMP180;69435;52.670;13.544;2023-09-19T04:44:11;100067.00;;;20.30
21336;BMP180;69435;52.670;13.544;2023-09-19T04:46:59;100055.00;;;20.30
21336;BMP180;69435;52.670;13.544;2023-09-19T04:49:46;100073.00;;;20.30
21336;BMP180;69435;52.670;13.544;2023-09-19T04:52:32;100086.00;;;20.20
21336;BMP180;69435;52.670;13.544;2023-09-19T04:55:18;100092.00;;;20.20
21336;BMP180;69435;52.670;13.544;2023-09-19T04:58:05;100084.00;;;20.10
21336;BMP180;69435;52.670;13.544;2023-09-19T05:00:51;100074.00;;;20.20
21336;BMP180;69435;52.670;13.544;2023-09-19T05:03:37;100089.00;;;20.20
21336;BMP180;69435;52.670;13.544;2023-09-19T05:06:24;100092.00;;;20.20
21336;BMP180;69435;52.670;13.544;2023-09-19T05:09:12;100087.00;;;20.20
21336;BMP180;69435;52.670;13.544;2023-09-19T05:11:59;100099.00;;;20.20
21336;BMP180;69435;52.670;13.544;2023-09-19T05:14:45;100089.00;;;20.10
21336;BMP180;69435;52.670;13.544;2023-09-19T05:17:31;100091.00;;;20.10
21336;BMP180;69435;52.670;13.544;2023-09-19T05:20:17;100102.00;;;20.10
21336;BMP180;69435;52.670;13.544;2023-09-19T05:23:16;100111.00;;;20.10
21336;BMP180;69435;52.670;13.544;2023-09-19T05:26:02;100103.00;;;20.00
21336;BMP180;69435;52.670;13.544;2023-09-19T05:28:49;100092.00;;;20.00
21336;BMP180;69435;52.670;13.544;2023-09-19T05:31:35;100119.00;;;20.00
21336;BMP180;69435;52.670;13.544;2023-09-19T05:34:26;100121.00;;;20.00
21336;BMP180;69435;52.670;13.544;2023-09-19T05:37:15;100107.00;;;20.00
21336;BMP180;69435;52.670;13.544;2023-09-19T05:40:02;100104.00;;;20.00
21336;BMP180;69435;52.670;13.544;2023-09-19T05:42:53;100134.00;;;19.90
21336;BMP180;69435;52.670;13.544;2023-09-19T05:45:39;100127.00;;;19.90
21336;BMP180;69435;52.670;13.544;2023-09-19T05:48:26;100140.00;;;19.90
21336;BMP180;69435;52.670;13.544;2023-09-19T05:51:13;100124.00;;;19.90
21336;BMP180;69435;52.670;13.544;2023-09-19T05:53:59;100148.00;;;19.90
21336;BMP180;69435;52.670;13.544;2023-09-19T05:56:45;100138.00;;;19.90
21336;BMP180;69435;52.670;13.544;2023-09-19T05:59:32;100157.00;;;19.90
21336;BMP180;69435;52.670;13.544;2023-09-19T06:02:19;100165.00;;;19.90
21336;BMP180;69435;52.670;13.544;2023-09-19T06:05:06;100158.00;;;20.00
21336;BMP180;69435;52.670;13.544;2023-09-19T06:07:56;100158.00;;;20.00
21336;BMP180;69435;52.670;13.544;2023-09-19T06:10:46;100152.00;;;20.00
21336;BMP180;69435;52.670;13.544;2023-09-19T06:13:32;100164.00;;;20.10
21336;BMP180;69435;52.670;13.544;2023-09-19T06:16:19;100190.00;;;20.10
21336;BMP180;69435;52.670;13.544;2023-09-19T06:19:05;100196.00;;;20.20
21336;BMP180;69435;52.670;13.544;2023-09-19T06:21:54;100196.00;;;20.30
21336;BMP180;69435;52.670;13.544;2023-09-19T06:24:40;100208.00;;;20.40
21336;BMP180;69435;52.670;13.544;2023-09-19T06:27:27;100205.00;;;20.50
21336;BMP180;69435;52.670;13.544;2023-09-19T06:30:13;100218.00;;;20.60
21336;BMP180;69435;52.670;13.544;2023-09-19T06:33:00;100212.00;;;20.60
21336;BMP180;69435;52.670;13.544;2023-09-19T06:35:46;100198.00;;;20.70
21336;BMP180;69435;52.670;13.544;2023-09-19T06:38:34;100208.00;;;20.80
21336;BMP180;69435;52.670;13.544;2023-09-19T06:41:21;100208.00;;;21.00
21336;BMP180;69435;52.670;13.544;2023-09-19T06:44:10;100214.00;;;21.10
21336;BMP180;69435;52.670;13.544;2023-09-19T06:46:56;100217.00;;;21.40
21336;BMP180;69435;52.670;13.544;2023-09-19T06:49:42;100212.00;;;21.80
21336;BMP180;69435;52.670;13.544;2023-09-19T06:52:30;100213.00;;;22.40
21336;BMP180;69435;52.670;13.544;2023-09-19T06:55:17;100220.00;;;23.10
21336;BMP180;69435;52.670;13.544;2023-09-19T06:58:05;100213.00;;;23.50
21336;BMP180;69435;52.670;13.544;2023-09-19T07:00:51;100216.00;;;23.80
21336;BMP180;69435;52.670;13.544;2023-09-19T07:03:37;100223.00;;;24.10
21336;BMP180;69435;52.670;13.544;2023-09-19T07:06:23;100219.00;;;24.40
21336;BMP180;69435;52.670;13.544;2023-09-19T07:09:10;100208.00;;;24.80
21336;BMP180;69435;52.670;13.544;2023-09-19T07:11:55;100226.00;;;25.20
21336;BMP180;69435;52.670;13.544;2023-09-19T07:14:41;100209.00;;;25.60
21336;BMP180;69435;52.670;13.544;2023-09-19T07:17:27;100238.00;;;25.90
21336;BMP180;69435;52.670;13.544;2023-09-19T07:20:15;100237.00;;;26.10
21336;BMP180;69435;52.670;13.544;2023-09-19T07:23:02;100233.00;;;26.20
21336;BMP180;69435;52.670;13.544;2023-09-19T07:25:48;100244.00;;;26.20
21336;BMP180;69435;52.670;13.544;2023-09-19T07:28:35;100250.00;;;26.00
21336;BMP180;69435;52.670;13.544;2023-09-19T07:31:22;100254.00;;;25.90
21336;BMP180;69435;52.670;13.544;2023-09-19T07:34:08;100258.00;;;25.70
21336;BMP180;69435;52.670;13.544;2023-09-19T07:36:56;100249.00;;;25.50
21336;BMP180;69435;52.670;13.544;2023-09-19T07:39:42;100273.00;;;25.40
21336;BMP180;69435;52.670;13.544;2023-09-19T07:42:29;100255.00;;;25.40
21336;BMP180;69435;52.670;13.544;2023-09-19T07:45:15;100267.00;;;25.40
21336;BMP180;69435;52.670;13.544;2023-09-19T07:48:03;100266.00;;;25.30
21336;BMP180;69435;52.670;13.544;2023-09-19T07:50:51;100272.00;;;25.30
21336;BMP180;69435;52.670;13.544;2023-09-19T07:53:37;100281.00;;;25.30
21336;BMP180;69435;52.670;13.544;2023-09-19T07:56:24;100288.00;;;25.10
21336;BMP180;69435;52.670;13.544;2023-09-19T07:59:11;100289.00;;;24.80
21336;BMP180;69435;52.670;13.544;2023-09-19T08:01:57;100287.00;;;24.60
21336;BMP180;69435;52.670;13.544;2023-09-19T08:04:44;100298.00;;;24.40
21336;BMP180;69435;52.670;13.544;2023-09-19T08:07:34;100291.00;;;24.50
21336;BMP180;69435;52.670;13.544;2023-09-19T08:10:22;100290.00;;;24.70
21336;BMP180;69435;52.670;13.544;2023-09-19T08:13:08;100288.00;;;24.80
21336;BMP180;69435;52.670;13.544;2023-09-19T08:16:00;100270.00;;;24.80
21336;BMP180;69435;52.670;13.544;2023-09-19T08:18:49;100273.00;;;24.80
21336;BMP180;69435;52.670;13.544;2023-09-19T08:21:38;100282.00;;;24.60
21336;BMP180;69435;52.670;13.544;2023-09-19T08:24:26;100285.00;;;24.50
21336;BMP180;69435;52.670;13.544;2023-09-19T08:27:14;100295.00;;;24.50
21336;BMP180;69435;52.670;13.544;2023-09-19T08:30:01;100288.00;;;24.50
21336;BMP180;69435;52.670;13.544;2023-09-19T08:32:48;100290.00;;;24.40
21336;BMP180;69435;52.670;13.544;2023-09-19T08:35:35;100291.00;;;24.50
21336;BMP180;69435;52.670;13.544;2023-09-19T08:38:21;100312.00;;;24.60
21336;BMP180;69435;52.670;13.544;2023-09-19T08:41:08;100313.00;;;24.70
21336;BMP180;69435;52.670;13.544;2023-09-19T08:43:58;100321.00;;;24.90
21336;BMP180;69435;52.670;13.544;2023-09-19T08:46:49;100315.00;;;25.20
21336;BMP180;69435;52.670;13.544;2023-09-19T08:50:04;100303.00;;;25.80
21336;BMP180;69435;52.670;13.544;2023-09-19T08:53:08;100303.00;;;26.20
21336;BMP180;69435;52.670;13.544;2023-09-19T08:55:56;100302.00;;;26.50
21336;BMP180;69435;52.670;13.544;2023-09-19T08:58:51;100322.00;;;26.70
21336;BMP180;69435;52.670;13.544;2023-09-19T09:01:40;100313.00;;;26.90
21336;BMP180;69435;52.670;13.544;2023-09-19T09:04:27;100316.00;;;27.00
21336;BMP180;69435;52.670;13.544;2023-09-19T09:07:14;100335.00;;;27.30
21336;BMP180;69435;52.670;13.544;2023-09-19T09:10:03;100340.00;;;27.70
21336;BMP180;69435;52.670;13.544;2023-09-19T09:12:53;100347.00;;;28.00
21336;BMP180;69435;52.670;13.544;2023-09-19T09:15:42;100337.00;;;27.90
21336;BMP180;69435;52.670;13.544;2023-09-19T09:18:30;100342.00;;;27.80
21336;BMP180;69435;52.670;13.544;2023-09-19T09:21:16;100335.00;;;27.90
21336;BMP180;69435;52.670;13.544;2023-09-19T09:24:30;100346.00;;;28.00
21336;BMP180;69435;52.670;13.544;2023-09-19T09:27:16;100353.00;;;27.90
21336;BMP180;69435;52.670;13.544;2023-09-19T09:30:04;100323.00;;;27.90
21336;BMP180;69435;52.670;13.544;2023-09-19T09:33:11;100355.00;;;28.10
21336;BMP180;69435;52.670;13.544;2023-09-19T09:35:59;100350.00;;;27.90
21336;BMP180;69435;52.670;13.544;2023-09-19T09:38:47;100340.00;;;27.70
21336;BMP180;69435;52.670;13.544;2023-09-19T09:41:41;100344.00;;;27.40
21336;BMP180;69435;52.670;13.544;2023-09-19T09:44:27;100337.00;;;27.10
21336;BMP180;69435;52.670;13.544;2023-09-19T09:47:47;100350.00;;;26.90
21336;BMP180;69435;52.670;13.544;2023-09-19T09:50:48;100351.00;;;26.80
21336;BMP180;69435;52.670;13.544;2023-09-19T09:53:34;100350.00;;;27.00
21336;BMP180;69435;52.670;13.544;2023-09-19T09:56:22;100349.00;;;27.30
21336;BMP180;69435;52.670;13.544;2023-09-19T09:59:08;100346.00;;;27.40
21336;BMP180;69435;52.670;13.544;2023-09-19T10:01:54;100359.00;;;27.30
21336;BMP180;69435;52.670;13.544;2023-09-19T10:04:42;100361.00;;;27.00
21336;BMP180;69435;52.670;13.544;2023-09-19T10:07:37;100345.00;;;26.80
21336;BMP180;69435;52.670;13.544;2023-09-19T10:10:39;100358.00;;;26.60
21336;BMP180;69435;52.670;13.544;2023-09-19T10:13:31;100357.00;;;26.50
21336;BMP180;69435;52.670;13.544;2023-09-19T10:16:18;100355.00;;;26.50
21336;BMP180;69435;52.670;13.544;2023-09-19T10:19:07;100353.00;;;26.90
21336;BMP180;69435;52.670;13.544;2023-09-19T10:21:56;100343.00;;;27.30
21336;BMP180;69435;52.670;13.544;2023-09-19T10:24:45;100374.00;;;27.60
21336;BMP180;69435;52.670;13.544;2023-09-19T10:27:35;100356.00;;;27.70
21336;BMP180;69435;52.670;13.544;2023-09-19T10:30:24;100364.00;;;27.50
21336;BMP180;69435;52.670;13.544;2023-09-19T10:33:13;100360.00;;;27.30
21336;BMP180;69435;52.670;13.544;2023-09-19T10:36:01;100339.00;;;27.20
21336;BMP180;69435;52.670;13.544;2023-09-19T10:38:49;100364.00;;;27.00
21336;BMP180;69435;52.670;13.544;2023-09-19T10:41:36;100357.00;;;26.80
21336;BMP180;69435;52.670;13.544;2023-09-19T10:44:26;100354.00;;;26.70
21336;BMP180;69435;52.670;13.544;2023-09-19T10:47:12;100349.00;;;26.70
21336;BMP180;69435;52.670;13.544;2023-09-19T10:50:01;100349.00;;;26.90
21336;BMP180;69435;52.670;13.544;2023-09-19T10:52:47;100358.00;;;27.00
21336;BMP180;69435;52.670;13.544;2023-09-19T10:55:36;100353.00;;;27.10
21336;BMP180;69435;52.670;13.544;2023-09-19T10:58:28;100351.00;;;27.10
21336;BMP180;69435;52.670;13.544;2023-09-19T11:01:20;100366.00;;;26.90
21336;BMP180;69435;52.670;13.544;2023-09-19T11:04:35;100367.00;;;26.90
21336;BMP180;69435;52.670;13.544;2023-09-19T11:07:22;100360.00;;;26.70
21336;BMP180;69435;52.670;13.544;2023-09-19T11:10:47;100355.00;;;26.80
21336;BMP180;69435;52.670;13.544;2023-09-19T11:13:34;100354.00;;;26.90
21336;BMP180;69435;52.670;13.544;2023-09-19T11:16:22;100371.00;;;27.10
21336;BMP180;69435;52.670;13.544;2023-09-19T11:19:09;100375.00;;;27.20
21336;BMP180;69435;52.670;13.544;2023-09-19T11:21:57;100367.00;;;27.30
21336;BMP180;69435;52.670;13.544;2023-09-19T11:24:44;100353.00;;;27.40
21336;BMP180;69435;52.670;13.544;2023-09-19T11:27:31;100367.00;;;27.50
21336;BMP180;69435;52.670;13.544;2023-09-19T11:30:27;100363.00;;;27.50
21336;BMP180;69435;52.670;13.544;2023-09-19T11:33:24;100359.00;;;27.40
21336;BMP180;69435;52.670;13.544;2023-09-19T11:36:35;100351.00;;;27.20
21336;BMP180;69435;52.670;13.544;2023-09-19T11:39:26;100368.00;;;27.10
21336;BMP180;69435;52.670;13.544;2023-09-19T11:42:48;100371.00;;;27.20
21336;BMP180;69435;52.670;13.544;2023-09-19T11:48:38;100375.00;;;27.00
21336;BMP180;69435;52.670;13.544;2023-09-19T11:51:25;100369.00;;;26.80
21336;BMP180;69435;52.670;13.544;2023-09-19T11:54:15;100370.00;;;26.70
21336;BMP180;69435;52.670;13.544;2023-09-19T11:57:04;100370.00;;;26.60
21336;BMP180;69435;52.670;13.544;2023-09-19T11:59:51;100370.00;;;26.50
21336;BMP180;69435;52.670;13.544;2023-09-19T12:02:42;100363.00;;;26.50
21336;BMP180;69435;52.670;13.544;2023-09-19T12:05:32;100379.00;;;26.40
21336;BMP180;69435;52.670;13.544;2023-09-19T12:08:19;100376.00;;;26.30
21336;BMP180;69435;52.670;13.544;2023-09-19T12:11:07;100384.00;;;26.30
21336;BMP180;69435;52.670;13.544;2023-09-19T12:13:56;100388.00;;;26.20
21336;BMP180;69435;52.670;13.544;2023-09-19T12:16:54;100387.00;;;26.10
21336;BMP180;69435;52.670;13.544;2023-09-19T12:19:55;100396.00;;;26.00
21336;BMP180;69435;52.670;13.544;2023-09-19T12:22:43;100385.00;;;25.90
21336;BMP180;69435;52.670;13.544;2023-09-19T12:25:42;100392.00;;;25.90
21336;BMP180;69435;52.670;13.544;2023-09-19T12:28:41;100390.00;;;25.80
21336;BMP180;69435;52.670;13.544;2023-09-19T12:31:28;100389.00;;;25.70
21336;BMP180;69435;52.670;13.544;2023-09-19T12:34:36;100386.00;;;25.80
21336;BMP180;69435;52.670;13.544;2023-09-19T12:37:27;100380.00;;;25.80
21336;BMP180;69435;52.670;13.544;2023-09-19T12:40:15;100384.00;;;26.00
21336;BMP180;69435;52.670;13.544;2023-09-19T12:43:03;100378.00;;;26.10
21336;BMP180;69435;52.670;13.544;2023-09-19T12:45:51;100383.00;;;26.10
21336;BMP180;69435;52.670;13.544;2023-09-19T12:48:39;100378.00;;;26.10
21336;BMP180;69435;52.670;13.544;2023-09-19T12:51:35;100376.00;;;26.10
21336;BMP180;69435;52.670;13.544;2023-09-19T12:54:22;100393.00;;;26.00
21336;BMP180;69435;52.670;13.544;2023-09-19T12:57:08;100389.00;;;26.00
21336;BMP180;69435;52.670;13.544;2023-09-19T12:59:55;100398.00;;;26.00
21336;BMP180;69435;52.670;13.544;2023-09-19T13:03:14;100387.00;;;26.00
21336;BMP180;69435;52.670;13.544;2023-09-19T13:06:14;100400.00;;;26.00
21336;BMP180;69435;52.670;13.544;2023-09-19T13:09:10;100403.00;;;26.00
21336;BMP180;69435;52.670;13.544;2023-09-19T13:11:56;100369.00;;;25.90
21336;BMP180;69435;52.670;13.544;2023-09-19T13:14:45;100404.00;;;25.80
21336;BMP180;69435;52.670;13.544;2023-09-19T13:17:47;100392.00;;;25.70
21336;BMP180;69435;52.670;13.544;2023-09-19T13:20:34;100392.00;;;25.50
21336;BMP180;69435;52.670;13.544;2023-09-19T13:23:28;100384.00;;;25.40
21336;BMP180;69435;52.670;13.544;2023-09-19T13:26:14;100398.00;;;25.30
21336;BMP180;69435;52.670;13.544;2023-09-19T13:29:01;100381.00;;;25.20
21336;BMP180;69435;52.670;13.544;2023-09-19T13:31:52;100392.00;;;25.20
21336;BMP180;69435;52.670;13.544;2023-09-19T13:34:41;100382.00;;;25.10
21336;BMP180;69435;52.670;13.544;2023-09-19T13:37:27;100392.00;;;25.10
21336;BMP180;69435;52.670;13.544;2023-09-19T13:40:15;100379.00;;;25.00
21336;BMP180;69435;52.670;13.544;2023-09-19T13:43:01;100387.00;;;24.90
21336;BMP180;69435;52.670;13.544;2023-09-19T13:45:47;100389.00;;;24.80
21336;BMP180;69435;52.670;13.544;2023-09-19T13:48:33;100386.00;;;24.70
21336;BMP180;69435;52.670;13.544;2023-09-19T13:51:21;100393.00;;;24.80
21336;BMP180;69435;52.670;13.544;2023-09-19T13:54:11;100377.00;;;24.80
21336;BMP180;69435;52.670;13.544;2023-09-19T13:57:00;100384.00;;;24.80
21336;BMP180;69435;52.670;13.544;2023-09-19T13:59:46;100391.00;;;24.70
21336;BMP180;69435;52.670;13.544;2023-09-19T14:02:33;100397.00;;;24.70
21336;BMP180;69435;52.670;13.544;2023-09-19T14:05:19;100398.00;;;24.60
21336;BMP180;69435;52.670;13.544;2023-09-19T14:08:06;100379.00;;;24.60
21336;BMP180;69435;52.670;13.544;2023-09-19T14:10:52;100377.00;;;24.50
21336;BMP180;69435;52.670;13.544;2023-09-19T14:13:39;100396.00;;;24.40
21336;BMP180;69435;52.670;13.544;2023-09-19T14:16:25;100395.00;;;24.40
21336;BMP180;69435;52.670;13.544;2023-09-19T14:19:15;100393.00;;;24.40
21336;BMP180;69435;52.670;13.544;2023-09-19T14:22:02;100383.00;;;24.40
21336;BMP180;69435;52.670;13.544;2023-09-19T14:24:53;100372.00;;;24.40
21336;BMP180;69435;52.670;13.544;2023-09-19T14:27:39;100358.00;;;24.40
21336;BMP180;69435;52.670;13.544;2023-09-19T14:30:25;100373.00;;;24.40
21336;BMP180;69435;52.670;13.544;2023-09-19T14:33:12;100381.00;;;24.40
21336;BMP180;69435;52.670;13.544;2023-09-19T14:35:58;100377.00;;;24.40
21336;BMP180;69435;52.670;13.544;2023-09-19T14:38:44;100370.00;;;24.40
21336;BMP180;69435;52.670;13.544;2023-09-19T14:41:30;100380.00;;;24.40
21336;BMP180;69435;52.670;13.544;2023-09-19T14:44:16;100367.00;;;24.40
21336;BMP180;69435;52.670;13.544;2023-09-19T14:47:03;100372.00;;;24.30
21336;BMP180;69435;52.670;13.544;2023-09-19T14:49:52;100375.00;;;24.30
21336;BMP180;69435;52.670;13.544;2023-09-19T14:52:38;100369.00;;;24.30
21336;BMP180;69435;52.670;13.544;2023-09-19T14:55:25;100373.00;;;24.30
21336;BMP180;69435;52.670;13.544;2023-09-19T14:58:13;100376.00;;;24.30
21336;BMP180;69435;52.670;13.544;2023-09-19T15:01:13;100371.00;;;24.20
21336;BMP180;69435;52.670;13.544;2023-09-19T15:03:59;100367.00;;;24.20
21336;BMP180;69435;52.670;13.544;2023-09-19T15:06:46;100370.00;;;24.20
21336;BMP180;69435;52.670;13.544;2023-09-19T15:09:34;100366.00;;;24.10
21336;BMP180;69435;52.670;13.544;2023-09-19T15:12:21;100365.00;;;24.10
21336;BMP180;69435;52.670;13.544;2023-09-19T15:15:08;100372.00;;;24.10
21336;BMP180;69435;52.670;13.544;2023-09-19T15:17:54;100367.00;;;24.10
21336;BMP180;69435;52.670;13.544;2023-09-19T15:20:45;100356.00;;;24.10
21336;BMP180;69435;52.670;13.544;2023-09-19T15:23:32;100368.00;;;24.00
21336;BMP180;69435;52.670;13.544;2023-09-19T15:26:19;100362.00;;;24.00
21336;BMP180;69435;52.670;13.544;2023-09-19T15:29:11;100359.00;;;24.00
21336;BMP180;69435;52.670;13.544;2023-09-19T15:31:57;100355.00;;;23.90
21336;BMP180;69435;52.670;13.544;2023-09-19T15:34:47;100357.00;;;23.90
21336;BMP180;69435;52.670;13.544;2023-09-19T15:37:33;100360.00;;;23.90
21336;BMP180;69435;52.670;13.544;2023-09-19T15:40:19;100351.00;;;23.80
21336;BMP180;69435;52.670;13.544;2023-09-19T15:43:05;100362.00;;;23.80
21336;BMP180;69435;52.670;13.544;2023-09-19T15:45:51;100349.00;;;23.80
21336;BMP180;69435;52.670;13.544;2023-09-19T15:48:37;100352.00;;;23.70
21336;BMP180;69435;52.670;13.544;2023-09-19T15:51:24;100360.00;;;23.70
21336;BMP180;69435;52.670;13.544;2023-09-19T15:54:15;100360.00;;;23.70
21336;BMP180;69435;52.670;13.544;2023-09-19T15:57:01;100371.00;;;23.60